Latest Weather Observations for South Channel Island

IDV60801

Issued at 6:32 am EST Friday 21 July 2017 (issued every 30 minutes, with the page automatically refreshed every 10 minutes)

About weather observations | Map of weather stations | Latest weather observations for VIC | Other Formats
Station Details ID: 086344 Name: SOUTH CHANNEL ISLAND Lat: -38.31 Lon: 144.80 Height: 9.0 m
Data from the previous 72 hours. | See also: Recent months for locations in Victoria
Date/Time
EST
Temp
°C
App
Temp
°C
Dew
Point
°C
Rel
Hum
%
Delta-T
°C
Wind Press
QNH
hPa
Press
MSL
hPa
Rain since
9am
mm
Dir  Spd
km/h
Gust
km/h
Spd
kts
Gust
kts
21/06:30am - - - - - CALM 0 9 0 5 - - -
21/06:00am - - - - - N 4 7 2 4 - - -
21/05:30am - - - - - NNE 9 11 5 6 - - -
21/05:00am - - - - - NE 9 11 5 6 - - -
21/04:30am - - - - - ENE 13 17 7 9 - - -
21/04:00am - - - - - NE 9 11 5 6 - - -
21/03:30am - - - - - ESE 6 6 3 3 - - -
21/03:00am - - - - - CALM 0 0 0 0 - - -
21/02:30am - - - - - CALM 0 0 0 0 - - -
21/02:00am - - - - - CALM 0 0 0 0 - - -
21/01:30am - - - - - E 2 7 1 4 - - -
21/01:00am - - - - - SSW 11 13 6 7 - - -
21/12:30am - - - - - S 17 20 9 11 - - -
21/12:00am - - - - - S 17 20 9 11 - - -
 
Date/Time
EST
Temp
°C
App
Temp
°C
Dew
Point
°C
Rel
Hum
%
Delta-T
°C
Wind Press
QNH
hPa
Press
MSL
hPa
Rain since
9am
mm
Dir  Spd
km/h
Gust
km/h
Spd
kts
Gust
kts
20/11:30pm - - - - - S 24 32 13 17 - - -
20/11:00pm - - - - - SSW 30 35 16 19 - - -
20/10:30pm - - - - - SSW 32 33 17 18 - - -
20/10:00pm - - - - - SSW 33 39 18 21 - - -
20/09:30pm - - - - - SW 37 48 20 26 - - -
20/09:00pm - - - - - SW 32 37 17 20 - - -
20/08:30pm - - - - - SW 33 41 18 22 - - -
20/08:00pm - - - - - SSW 33 37 18 20 - - -
20/07:30pm - - - - - SSW 32 39 17 21 - - -
20/07:00pm - - - - - SW 35 41 19 22 - - -
20/06:30pm - - - - - SW 35 39 19 21 - - -
20/06:00pm - - - - - SSW 37 46 20 25 - - -
20/05:30pm - - - - - SSW 33 39 18 21 - - -
20/05:00pm - - - - - SW 33 37 18 20 - - -
20/04:30pm - - - - - SSW 41 52 22 28 - - -
20/04:00pm - - - - - SSW 37 46 20 25 - - -
20/03:30pm - - - - - SSW 43 52 23 28 - - -
20/03:00pm - - - - - SW 44 54 24 29 - - -
20/02:30pm - - - - - SW 50 57 27 31 - - -
20/02:00pm - - - - - SW 48 56 26 30 - - -
20/01:30pm - - - - - SW 43 50 23 27 - - -
20/01:00pm - - - - - SW 41 59 22 32 - - -
20/12:59pm - - - - - SW 41 59 22 32 - - -
20/12:46pm - - - - - WSW 44 54 24 29 - - -
20/12:30pm - - - - - SW 57 72 31 39 - - -
20/12:22pm - - - - - SW 46 70 25 38 - - -
20/12:05pm - - - - - SSW 61 83 33 45 - - -
20/12:03pm - - - - - SSW 65 83 35 45 - - -
20/12:00pm - - - - - SSW 65 83 35 45 - - -
20/11:55am - - - - - SSW 50 82 27 44 - - -
20/11:52am - - - - - SSW 44 69 24 37 - - -
20/11:45am - - - - - SSW 46 61 25 33 - - -
20/11:30am - - - - - SW 59 76 32 41 - - -
20/11:21am - - - - - SW 56 74 30 40 - - -
20/11:00am - - - - - SW 54 65 29 35 - - -
20/10:35am - - - - - SW 56 74 30 40 - - -
20/10:30am - - - - - SW 52 61 28 33 - - -
20/10:07am - - - - - SW 52 72 28 39 - - -
20/10:00am - - - - - WSW 52 67 28 36 - - -
20/09:39am - - - - - SW 52 76 28 41 - - -
20/09:30am - - - - - SW 50 59 27 32 - - -
20/09:17am - - - - - WSW 57 78 31 42 - - -
20/09:00am - - - - - SW 57 74 31 40 - - -
20/08:50am - - - - - SW 54 76 29 41 - - -
20/08:30am - - - - - SW 59 72 32 39 - - -
20/08:22am - - - - - WSW 59 74 32 40 - - -
20/08:14am - - - - - WSW 46 69 25 37 - - -
20/08:00am - - - - - WSW 52 65 28 35 - - -
20/07:45am - - - - - WSW 46 69 25 37 - - -
20/07:30am - - - - - WSW 56 69 30 37 - - -
20/07:00am - - - - - WSW 56 67 30 36 - - -
20/06:47am - - - - - WSW 52 69 28 37 - - -
20/06:37am - - - - - W 39 59 21 32 - - -
20/06:30am - - - - - W 39 54 21 29 - - -
20/06:00am - - - - - W 37 44 20 24 - - -
20/05:43am - - - - - W 39 59 21 32 - - -
20/05:30am - - - - - W 37 50 20 27 - - -
20/05:00am - - - - - W 41 50 22 27 - - -
20/04:30am - - - - - W 48 61 26 33 - - -
20/04:00am - - - - - W 43 50 23 27 - - -
20/03:30am - - - - - WNW 44 50 24 27 - - -
20/03:00am - - - - - WNW 46 54 25 29 - - -
20/02:30am - - - - - WNW 46 54 25 29 - - -
20/02:00am - - - - - WNW 46 57 25 31 - - -
20/01:30am - - - - - WNW 43 50 23 27 - - -
20/01:00am - - - - - WNW 41 48 22 26 - - -
20/12:30am - - - - - WNW 39 48 21 26 - - -
20/12:00am - - - - - WNW 43 48 23 26 - - -
 
Date/Time
EST
Temp
°C
App
Temp
°C
Dew
Point
°C
Rel
Hum
%
Delta-T
°C
Wind Press
QNH
hPa
Press
MSL
hPa
Rain since
9am
mm
Dir  Spd
km/h
Gust
km/h
Spd
kts
Gust
kts
19/11:30pm - - - - - WNW 41 48 22 26 - - -
19/11:00pm - - - - - WNW 39 48 21 26 - - -
19/10:30pm - - - - - W 41 50 22 27 - - -
19/10:00pm - - - - - WNW 41 50 22 27 - - -
19/09:30pm - - - - - W 41 52 22 28 - - -
19/09:00pm - - - - - W 41 50 22 27 - - -
19/08:30pm - - - - - W 37 43 20 23 - - -
19/08:15pm - - - - - WSW 39 57 21 31 - - -
19/08:00pm - - - - - SW 43 52 23 28 - - -
19/07:30pm - - - - - WSW 39 50 21 27 - - -
19/07:00pm - - - - - SW 41 52 22 28 - - -
19/06:30pm - - - - - SW 43 52 23 28 - - -
19/06:00pm - - - - - SW 41 52 22 28 - - -
19/05:30pm - - - - - SW 46 59 25 32 - - -
19/05:00pm - - - - - SW 44 56 24 30 - - -
19/04:30pm - - - - - SW 44 54 24 29 - - -
19/04:00pm - - - - - SW 46 56 25 30 - - -
19/03:55pm - - - - - SW 46 65 25 35 - - -
19/03:30pm - - - - - SSW 46 57 25 31 - - -
19/03:00pm - - - - - SW 48 61 26 33 - - -
19/02:30pm - - - - - SW 50 59 27 32 - - -
19/02:02pm - - - - - SSW 52 72 28 39 - - -
19/02:00pm - - - - - SSW 50 59 27 32 - - -
19/01:30pm - - - - - SW 54 61 29 33 - - -
19/01:00pm - - - - - SSW 52 61 28 33 - - -
19/12:30pm - - - - - SW 54 67 29 36 - - -
19/12:00pm - - - - - SSW 52 61 28 33 - - -
19/11:30am - - - - - SSW 54 63 29 34 - - -
19/11:00am - - - - - SSW 57 63 31 34 - - -
19/10:30am - - - - - SW 54 65 29 35 - - -
19/10:00am - - - - - SSW 52 59 28 32 - - -
19/09:30am - - - - - SW 48 61 26 33 - - -
19/09:00am - - - - - SW 52 61 28 33 - - -
19/08:30am - - - - - SSW 50 57 27 31 - - -
19/08:00am - - - - - SSW 50 57 27 31 - - -
19/07:30am - - - - - SW 50 57 27 31 - - -
19/07:00am - - - - - SSW 37 46 20 25 - - -
19/06:30am - - - - - SW 37 54 20 29 - - -
19/06:00am - - - - - SW 33 39 18 21 - - -
19/05:30am - - - - - SW 32 39 17 21 - - -
19/05:00am - - - - - W 28 32 15 17 - - -
19/04:30am - - - - - WNW 35 39 19 21 - - -
19/04:00am - - - - - WNW 32 37 17 20 - - -
19/03:30am - - - - - WNW 35 37 19 20 - - -
19/03:00am - - - - - W 35 41 19 22 - - -
19/02:30am - - - - - WNW 33 37 18 20 - - -
19/02:00am - - - - - W 33 39 18 21 - - -
19/01:30am - - - - - WNW 33 39 18 21 - - -
19/01:00am - - - - - WNW 37 43 20 23 - - -
19/12:30am - - - - - WNW 32 39 17 21 - - -
19/12:00am - - - - - WNW 30 35 16 19 - - -
 
Date/Time
EST
Temp
°C
App
Temp
°C
Dew
Point
°C
Rel
Hum
%
Delta-T
°C
Wind Press
QNH
hPa
Press
MSL
hPa
Rain since
9am
mm
Dir  Spd
km/h
Gust
km/h
Spd
kts
Gust
kts
18/11:30pm - - - - - WNW 33 39 18 21 - - -
18/11:00pm - - - - - NW 35 41 19 22 - - -
18/10:30pm - - - - - NW 33 37 18 20 - - -
18/10:00pm - - - - - NW 33 39 18 21 - - -
18/09:30pm - - - - - NW 32 37 17 20 - - -
18/09:00pm - - - - - NW 33 37 18 20 - - -
18/08:30pm - - - - - NW 32 35 17 19 - - -
18/08:00pm - - - - - NW 28 32 15 17 - - -
18/07:30pm - - - - - NW 28 33 15 18 - - -
18/07:00pm - - - - - NW 24 30 13 16 - - -
18/06:30pm - - - - - NNW 26 30 14 16 - - -
18/06:00pm - - - - - NNW 28 32 15 17 - - -
18/05:30pm - - - - - NNW 20 24 11 13 - - -
18/05:00pm - - - - - NNW 22 26 12 14 - - -
18/04:30pm - - - - - NNW 20 24 11 13 - - -
18/04:00pm - - - - - WNW 26 35 14 19 - - -
18/03:30pm - - - - - WNW 28 33 15 18 - - -
18/03:00pm - - - - - NW 28 32 15 17 - - -
18/02:30pm - - - - - NW 26 32 14 17 - - -
18/02:00pm - - - - - WNW 30 33 16 18 - - -
18/01:30pm - - - - - NW 26 30 14 16 - - -
18/01:00pm - - - - - NW 30 32 16 17 - - -
18/12:30pm - - - - - NNW 24 28 13 15 - - -
18/12:00pm - - - - - NNW 26 32 14 17 - - -
18/11:30am - - - - - NNW 30 33 16 18 - - -
18/11:00am - - - - - N 30 37 16 20 - - -
18/10:30am - - - - - N 35 39 19 21 - - -
18/10:00am - - - - - NNW 37 41 20 22 - - -
18/09:30am - - - - - N 33 41 18 22 - - -
18/09:00am - - - - - N 35 41 19 22 - - -
18/08:30am - - - - - N 35 39 19 21 - - -
18/08:00am - - - - - N 32 37 17 20 - - -
18/07:30am - - - - - N 37 43 20 23 - - -
18/07:00am - - - - - N 37 43 20 23 - - -

Other Formats:

Comma delimited format used in spreadsheet applications
http://www.bom.gov.au/fwo/IDV60801/IDV60801.94853.axf

JavaScript Object Notation format (JSON) in row-major order
http://www.bom.gov.au/fwo/IDV60801/IDV60801.94853.json